createdAt,value
2022-10-21T00:01:14.332Z,24.05
2022-10-21T00:06:17.774Z,23.40
2022-10-21T00:11:22.717Z,22.90
2022-10-21T00:16:26.253Z,21.30
2022-10-21T00:21:29.819Z,21.95
2022-10-21T00:26:37.637Z,22.08
2022-10-21T00:31:42.677Z,21.90
2022-10-21T00:36:46.129Z,23.50
2022-10-21T00:41:50.952Z,22.35
2022-10-21T00:46:58.914Z,24.80
2022-10-21T00:52:04.713Z,25.17
2022-10-21T00:57:10.564Z,22.75
2022-10-21T01:02:14.079Z,22.90
2022-10-21T01:07:17.715Z,21.70
2022-10-21T01:12:31.276Z,23.30
2022-10-21T01:17:47.125Z,21.85
2022-10-21T01:23:19.270Z,22.52
2022-10-21T01:28:38.237Z,21.20
2022-10-21T01:33:46.519Z,18.73
2022-10-21T01:39:11.151Z,20.42
2022-10-21T01:44:22.582Z,20.83
2022-10-21T01:49:34.391Z,21.73
2022-10-21T01:54:41.467Z,18.38
2022-10-21T01:59:46.851Z,22.40
2022-10-21T02:04:53.009Z,24.90
2022-10-21T02:09:56.697Z,24.60
2022-10-21T02:15:02.298Z,27.05
2022-10-21T02:20:10.659Z,23.13
2022-10-21T02:25:19.943Z,22.75
2022-10-21T02:30:27.357Z,22.83
2022-10-21T02:35:40.074Z,21.42
2022-10-21T02:40:46.741Z,21.77
2022-10-21T02:45:50.873Z,23.95
2022-10-21T02:50:55.977Z,21.17
2022-10-21T02:55:59.565Z,22.02
2022-10-21T03:01:03.368Z,23.45
2022-10-21T03:06:08.356Z,21.00
2022-10-21T03:11:11.900Z,23.60
2022-10-21T03:16:15.485Z,20.20
2022-10-21T03:21:20.451Z,22.70
2022-10-21T03:26:24.147Z,22.05
2022-10-21T03:31:27.584Z,20.58
2022-10-21T03:36:32.486Z,19.98
2022-10-21T03:41:35.956Z,21.55
2022-10-21T03:46:39.423Z,21.95
2022-10-21T03:51:44.272Z,22.77
2022-10-21T03:56:48.112Z,20.08
2022-10-21T04:01:51.609Z,19.02
2022-10-21T04:06:56.444Z,22.50
2022-10-21T04:11:59.893Z,20.10
2022-10-21T04:17:07.684Z,18.30
2022-10-21T04:22:12.767Z,16.60
2022-10-21T04:27:16.390Z,16.63
2022-10-21T04:32:19.836Z,18.25
2022-10-21T04:37:24.770Z,16.15
2022-10-21T04:47:36.833Z,17.50
2022-10-21T04:52:41.838Z,16.80
2022-10-21T04:57:46.034Z,19.75
2022-10-21T05:02:49.531Z,16.80
2022-10-21T05:07:54.372Z,17.55
2022-10-21T05:12:58.300Z,15.93
2022-10-21T05:18:02.124Z,14.18
2022-10-21T05:23:07.086Z,18.05
2022-10-21T05:28:10.520Z,18.45
2022-10-21T05:33:14.553Z,18.85
2022-10-21T05:38:19.396Z,15.05
2022-10-21T05:43:23.009Z,14.85
2022-10-21T05:48:29.033Z,16.33
2022-10-21T05:53:33.853Z,17.27
2022-10-21T05:58:37.514Z,14.82
2022-10-21T06:03:40.990Z,16.65
2022-10-21T06:08:46.269Z,14.93
2022-10-21T06:13:50.377Z,16.63
2022-10-21T06:18:53.856Z,16.50
2022-10-21T06:23:58.725Z,15.48
2022-10-21T06:29:02.173Z,16.52
2022-10-21T06:34:05.834Z,17.40
2022-10-21T06:39:10.856Z,16.88
2022-10-21T06:44:14.355Z,16.45
2022-10-21T06:49:17.954Z,17.75
2022-10-21T06:54:22.904Z,19.27
2022-10-21T06:59:26.574Z,16.67
2022-10-21T07:04:30.776Z,18.80
2022-10-21T07:09:36.059Z,17.40
2022-10-21T07:14:39.684Z,18.00
2022-10-21T07:19:43.455Z,17.98
2022-10-21T07:24:48.485Z,16.77
2022-10-21T07:29:52.218Z,15.85
2022-10-21T07:34:55.957Z,17.10
2022-10-21T07:40:00.775Z,19.30
2022-10-21T07:45:04.946Z,18.58
2022-10-21T07:50:09.330Z,17.33
2022-10-21T07:55:15.645Z,18.45
2022-10-21T08:00:19.172Z,18.13
2022-10-21T08:05:23.234Z,15.38
2022-10-21T08:10:28.124Z,18.10
2022-10-21T08:15:31.716Z,19.20
2022-10-21T08:20:35.279Z,20.17
2022-10-21T08:25:40.819Z,18.02
2022-10-21T08:30:44.857Z,18.13
2022-10-21T08:35:48.588Z,18.60
2022-10-21T08:40:55.706Z,48.75
2022-10-21T08:46:03.853Z,18.33
2022-10-21T08:51:13.427Z,16.38
2022-10-21T08:56:20.186Z,17.38
2022-10-21T09:01:33.629Z,14.43
2022-10-21T09:06:44.381Z,15.43
2022-10-21T09:11:58.764Z,12.63
2022-10-21T09:17:12.230Z,12.38
2022-10-21T09:22:36.096Z,11.95
2022-10-21T09:27:54.866Z,12.02
2022-10-21T09:33:01.162Z,13.70
2022-10-21T09:38:12.604Z,11.38
2022-10-21T09:43:22.099Z,11.65
2022-10-21T09:48:36.984Z,9.27
2022-10-21T09:53:54.170Z,9.63
2022-10-21T09:59:08.246Z,9.68
2022-10-21T10:04:13.292Z,10.13
2022-10-21T10:09:19.065Z,9.43
2022-10-21T10:14:35.830Z,11.82
2022-10-21T10:19:39.631Z,11.20
2022-10-21T10:24:44.699Z,13.80
2022-10-21T10:29:55.159Z,13.38
2022-10-21T10:35:03.301Z,13.97
2022-10-21T10:40:10.607Z,13.80
2022-10-21T10:45:19.861Z,13.00
2022-10-21T10:50:44.094Z,13.02
2022-10-21T10:55:52.898Z,13.38
2022-10-21T11:01:02.070Z,12.82
2022-10-21T11:06:14.728Z,13.48
2022-10-21T11:11:24.843Z,13.55
2022-10-21T11:17:01.325Z,12.48
2022-10-21T11:22:14.417Z,13.75
2022-10-21T11:27:32.568Z,14.93
2022-10-21T11:32:55.191Z,14.57
2022-10-21T11:38:32.781Z,16.02
2022-10-21T11:43:45.801Z,17.65
2022-10-21T11:49:19.523Z,13.85
2022-10-21T11:54:57.521Z,14.68
2022-10-21T12:00:22.299Z,11.88
2022-10-21T12:05:48.740Z,10.85
2022-10-21T12:10:58.517Z,10.65
2022-10-21T12:21:39.744Z,7.97
2022-10-21T12:26:49.589Z,5.50
2022-10-21T12:32:03.905Z,6.43
2022-10-21T12:38:00.579Z,4.93
2022-10-21T12:43:06.912Z,5.68
2022-10-21T12:48:31.955Z,5.55
2022-10-21T12:53:41.552Z,4.53
2022-10-21T12:58:46.576Z,4.75
2022-10-21T13:03:56.393Z,4.57
2022-10-21T13:09:02.224Z,5.90
2022-10-21T13:14:35.279Z,4.68
2022-10-21T13:19:40.037Z,4.28
2022-10-21T13:24:46.539Z,3.97
2022-10-21T13:29:50.929Z,4.18
2022-10-21T13:35:04.292Z,4.45
2022-10-21T13:40:15.981Z,4.30
2022-10-21T13:45:26.658Z,2.83
2022-10-21T13:50:34.980Z,3.13
2022-10-21T13:55:39.938Z,2.95
2022-10-21T14:00:43.727Z,2.63
2022-10-21T14:05:51.321Z,2.92
2022-10-21T14:11:01.951Z,2.72
2022-10-21T14:16:08.325Z,2.35
2022-10-21T14:21:19.431Z,4.85
2022-10-21T14:31:28.671Z,1.67
2022-10-21T14:36:32.167Z,1.40
2022-10-21T14:41:39.376Z,1.15
2022-10-21T14:46:45.099Z,1.35
2022-10-21T14:51:57.508Z,1.67
2022-10-21T14:57:04.535Z,1.58
2022-10-21T15:02:18.348Z,1.30
2022-10-21T15:07:30.071Z,1.05
2022-10-21T15:12:41.302Z,0.80
2022-10-21T15:17:45.223Z,1.00
2022-10-21T15:22:49.595Z,1.08
2022-10-21T15:27:55.237Z,0.90
2022-10-21T15:32:58.835Z,1.52
2022-10-21T15:38:02.419Z,0.80
2022-10-21T15:43:07.408Z,1.15
2022-10-21T15:48:12.323Z,2.95
2022-10-21T15:53:15.877Z,2.08
2022-10-21T15:58:20.955Z,4.45
2022-10-21T16:03:24.527Z,6.75
2022-10-21T16:08:28.140Z,4.47
2022-10-21T16:13:33.046Z,4.78
2022-10-21T16:18:36.740Z,7.65
2022-10-21T16:23:40.371Z,8.50
2022-10-21T16:28:45.286Z,5.80
2022-10-21T16:33:49.508Z,6.28
2022-10-21T16:38:54.519Z,4.93
2022-10-21T16:43:59.582Z,3.28
2022-10-21T16:49:09.193Z,2.30
2022-10-21T16:54:16.818Z,2.83
2022-10-21T16:59:21.954Z,2.80
2022-10-21T17:04:25.697Z,2.65
2022-10-21T17:09:29.304Z,2.85
2022-10-21T17:19:38.928Z,3.13
2022-10-21T17:24:42.443Z,3.05
2022-10-21T17:29:47.626Z,3.10
2022-10-21T17:34:51.114Z,2.92
2022-10-21T17:39:54.596Z,3.05
2022-10-21T17:45:02.890Z,3.10
2022-10-21T17:50:08.454Z,3.65
2022-10-21T17:55:11.975Z,3.55
2022-10-21T18:00:17.440Z,3.83
2022-10-21T18:05:21.330Z,3.47
2022-10-21T18:10:25.021Z,4.57
2022-10-21T18:15:31.527Z,3.20
2022-10-21T18:20:37.739Z,3.47
2022-10-21T18:25:42.411Z,4.50
2022-10-21T18:30:47.571Z,4.88
2022-10-21T18:35:51.414Z,4.32
2022-10-21T18:40:56.640Z,4.60
2022-10-21T18:46:07.310Z,5.10
2022-10-21T18:51:12.586Z,4.93
2022-10-21T18:56:17.514Z,4.57
2022-10-21T19:01:23.491Z,6.20
2022-10-21T19:06:35.866Z,5.75
2022-10-21T19:11:39.799Z,4.70
2022-10-21T19:16:45.602Z,3.08
2022-10-21T19:21:49.784Z,2.50
2022-10-21T19:26:55.778Z,2.97
2022-10-21T19:32:02.341Z,2.28
2022-10-21T19:37:06.876Z,2.60
2022-10-21T19:42:10.489Z,2.55
2022-10-21T19:47:15.655Z,15.10
2022-10-21T19:52:19.254Z,4.03
2022-10-21T19:57:22.977Z,2.80
2022-10-21T20:02:27.997Z,3.08
2022-10-21T20:07:35.769Z,3.08
2022-10-21T20:12:39.593Z,2.58
2022-10-21T20:17:44.737Z,2.75
2022-10-21T20:22:48.300Z,3.00
2022-10-21T20:27:51.691Z,2.55
2022-10-21T20:32:56.529Z,3.10
2022-10-21T20:38:00.119Z,2.67
2022-10-21T20:43:03.780Z,2.63
2022-10-21T20:48:08.628Z,3.20
2022-10-21T20:53:12.250Z,3.53
2022-10-21T20:58:15.685Z,3.10
2022-10-21T21:03:20.644Z,2.95
2022-10-21T21:08:24.088Z,2.38
2022-10-21T21:13:27.656Z,2.88
2022-10-21T21:18:32.552Z,3.53
2022-10-21T21:23:36.789Z,2.85
2022-10-21T21:28:40.880Z,2.97
2022-10-21T21:33:46.343Z,3.17
2022-10-21T21:38:51.629Z,3.50
2022-10-21T21:43:56.592Z,3.22
2022-10-21T21:49:05.663Z,3.25
2022-10-21T21:54:09.564Z,2.72
2022-10-21T21:59:13.015Z,2.85
2022-10-21T22:04:18.018Z,3.20
2022-10-21T22:09:21.484Z,3.17
2022-10-21T22:14:24.932Z,2.97
2022-10-21T22:19:29.794Z,4.53
2022-10-21T22:29:42.204Z,3.53
2022-10-21T22:34:47.040Z,3.70
2022-10-21T22:39:50.910Z,3.40
2022-10-21T22:44:54.336Z,3.08
2022-10-21T22:49:59.147Z,3.25
2022-10-21T22:55:02.653Z,3.20
2022-10-21T23:00:07.225Z,3.42
2022-10-21T23:05:12.014Z,3.20
2022-10-21T23:10:15.531Z,3.30
2022-10-21T23:15:18.985Z,3.63
2022-10-21T23:20:23.791Z,4.15
2022-10-21T23:25:27.936Z,4.32
2022-10-21T23:30:33.798Z,4.13
2022-10-21T23:35:38.600Z,3.78
2022-10-21T23:40:42.109Z,4.05
2022-10-21T23:45:45.589Z,3.72
2022-10-21T23:50:50.395Z,3.75
2022-10-21T23:55:53.880Z,3.72
